createdAt,value
2019-04-29T00:02:30.641Z,47.10
2019-04-29T00:04:59.635Z,47.30
2019-04-29T00:07:28.605Z,47.70
2019-04-29T00:09:57.621Z,47.10
2019-04-29T00:12:27.178Z,47.20
2019-04-29T00:14:57.758Z,47.40
2019-04-29T00:17:28.287Z,47.80
2019-04-29T00:20:14.864Z,47.70
2019-04-29T00:23:03.236Z,47.70
2019-04-29T00:25:32.234Z,47.90
2019-04-29T00:28:20.366Z,47.80
2019-04-29T00:30:49.242Z,48.20
2019-04-29T00:33:18.155Z,48.10
2019-04-29T00:35:47.039Z,48.30
2019-04-29T00:38:17.679Z,48.70
2019-04-29T00:40:48.185Z,48.90
2019-04-29T00:43:21.583Z,49.10
2019-04-29T00:45:50.593Z,49.10
2019-04-29T00:48:19.378Z,49.30
2019-04-29T00:50:48.271Z,49.50
2019-04-29T00:53:23.313Z,49.40
2019-04-29T00:55:52.304Z,49.50
2019-04-29T00:58:21.299Z,49.30
2019-04-29T01:00:50.289Z,49.60
2019-04-29T01:03:19.284Z,49.50
2019-04-29T01:05:48.168Z,49.60
2019-04-29T01:08:16.963Z,49.80
2019-04-29T01:10:46.669Z,49.70
2019-04-29T01:13:34.917Z,49.70
2019-04-29T01:16:03.913Z,49.80
2019-04-29T01:18:32.904Z,50.10
2019-04-29T01:21:01.900Z,50.00
2019-04-29T01:23:30.894Z,50.10
2019-04-29T01:26:17.700Z,49.90
2019-04-29T01:28:54.067Z,49.80
2019-04-29T01:31:24.595Z,49.90
2019-04-29T01:33:55.126Z,49.80
2019-04-29T01:36:25.653Z,49.60
2019-04-29T01:38:56.284Z,49.50
2019-04-29T01:41:32.954Z,49.70
2019-04-29T01:44:06.150Z,49.80
2019-04-29T01:46:35.143Z,49.90
2019-04-29T01:49:04.223Z,49.80
2019-04-29T01:51:33.133Z,49.70
2019-04-29T01:54:02.126Z,50.00
2019-04-29T01:56:31.763Z,50.10
2019-04-29T01:59:00.613Z,50.30
2019-04-29T02:01:29.720Z,50.30
2019-04-29T02:03:58.731Z,50.50
2019-04-29T02:06:27.703Z,50.70
2019-04-29T02:08:57.069Z,50.90
2019-04-29T02:11:26.311Z,51.20
2019-04-29T02:13:55.298Z,51.20
2019-04-29T02:16:24.291Z,51.40
2019-04-29T02:18:53.170Z,51.50
2019-04-29T02:21:22.072Z,51.50
2019-04-29T02:24:01.716Z,51.80
2019-04-29T02:26:30.709Z,51.70
2019-04-29T02:28:59.700Z,51.90
2019-04-29T02:31:42.577Z,51.90
2019-04-29T02:34:11.514Z,52.40
2019-04-29T02:36:40.696Z,52.60
2019-04-29T02:39:31.312Z,52.50
2019-04-29T02:42:01.851Z,52.50
2019-04-29T02:46:59.216Z,52.30
2019-04-29T02:49:28.205Z,52.80
2019-04-29T02:51:57.300Z,52.80
2019-04-29T02:54:27.826Z,53.10
2019-04-29T02:57:14.534Z,53.00
2019-04-29T02:59:57.351Z,53.00
2019-04-29T03:02:27.888Z,53.30
2019-04-29T03:05:14.893Z,53.60
2019-04-29T03:07:43.994Z,53.60
2019-04-29T03:10:13.558Z,54.40
2019-04-29T03:12:42.595Z,53.80
2019-04-29T03:15:11.768Z,53.70
2019-04-29T03:17:40.871Z,53.80
2019-04-29T03:20:20.422Z,54.30
2019-04-29T03:22:50.645Z,54.10
2019-04-29T03:25:19.428Z,54.20
2019-04-29T03:27:48.322Z,54.10
2019-04-29T03:30:17.525Z,54.10
2019-04-29T03:32:46.517Z,54.10
2019-04-29T03:35:15.403Z,53.50
2019-04-29T03:37:44.296Z,53.50
2019-04-29T03:40:13.192Z,53.10
2019-04-29T03:42:42.073Z,53.00
2019-04-29T03:45:11.176Z,52.60
2019-04-29T03:47:40.171Z,52.40
2019-04-29T03:50:09.138Z,51.90
2019-04-29T03:52:38.155Z,51.50
2019-04-29T03:55:07.224Z,50.70
2019-04-29T03:57:37.466Z,50.10
2019-04-29T04:00:09.743Z,49.80
2019-04-29T04:02:55.235Z,49.00
2019-04-29T04:05:25.855Z,48.20
2019-04-29T04:07:56.271Z,48.00
2019-04-29T04:10:25.380Z,47.20
2019-04-29T04:12:54.244Z,45.30
2019-04-29T04:15:23.362Z,44.30
2019-04-29T04:18:03.107Z,44.20
2019-04-29T04:20:32.090Z,43.50
2019-04-29T04:23:01.095Z,43.60
2019-04-29T04:25:30.092Z,42.40
2019-04-29T04:27:59.082Z,41.20
2019-04-29T04:30:28.074Z,39.00
2019-04-29T04:32:57.068Z,38.60
2019-04-29T04:35:26.062Z,38.40
2019-04-29T04:37:54.942Z,38.50
2019-04-29T17:11:43.309Z,59.80
2019-04-29T17:14:12.995Z,60.30
2019-04-29T17:16:42.218Z,60.90
2019-04-29T17:19:17.256Z,61.70
2019-04-29T17:21:46.252Z,62.00
2019-04-29T17:24:15.243Z,62.70
2019-04-29T17:26:45.881Z,63.10
2019-04-29T17:29:38.984Z,63.80
2019-04-29T17:32:20.784Z,64.40
2019-04-29T17:34:59.097Z,65.30
2019-04-29T17:37:22.603Z,66.20
2019-04-29T17:39:51.621Z,66.90
2019-04-29T17:42:20.786Z,67.60
2019-04-29T17:44:49.558Z,68.50
2019-04-29T17:47:20.112Z,69.20
2019-04-29T17:49:50.770Z,69.10
2019-04-29T17:52:27.137Z,69.40
2019-04-29T17:54:57.839Z,70.00
2019-04-29T17:57:31.417Z,70.40
2019-04-29T18:00:15.922Z,71.10
2019-04-29T18:02:46.632Z,72.00
2019-04-29T18:05:52.241Z,73.00
2019-04-29T18:08:07.660Z,73.70
2019-04-29T18:10:40.141Z,74.00
2019-04-29T18:13:12.396Z,74.60
2019-04-29T18:15:57.599Z,74.80
2019-04-29T18:18:17.329Z,74.80
2019-04-29T18:21:03.171Z,75.00
2019-04-29T18:23:39.807Z,75.70
2019-04-29T18:26:10.337Z,76.20
2019-04-29T18:28:39.539Z,76.50
2019-04-29T18:31:10.068Z,77.50
2019-04-29T18:33:39.062Z,78.40
2019-04-29T18:36:19.291Z,79.00
2019-04-29T18:38:38.583Z,79.80
2019-04-29T18:41:07.580Z,80.60
2019-04-29T18:43:36.587Z,81.00
2019-04-29T18:46:11.810Z,81.30
2019-04-29T18:48:35.916Z,81.60
2019-04-29T18:51:05.703Z,81.60
2019-04-29T18:53:35.432Z,81.00
2019-04-29T18:56:05.250Z,80.70
2019-04-29T18:58:35.598Z,80.50
2019-04-29T19:01:05.356Z,80.50
2019-04-29T19:03:42.036Z,79.70
2019-04-29T19:06:11.309Z,80.50
2019-04-29T19:08:40.324Z,80.90
2019-04-29T19:11:09.317Z,81.30
2019-04-29T19:13:38.373Z,79.90
2019-04-29T19:16:10.306Z,79.10
2019-04-29T19:18:38.141Z,78.70
2019-04-29T19:21:07.142Z,78.20
2019-04-29T19:23:36.021Z,78.00
2019-04-29T19:26:04.913Z,78.20
2019-04-29T19:28:36.979Z,78.60
2019-04-29T19:31:09.305Z,78.80
2019-04-29T19:33:39.304Z,79.50
2019-04-29T19:36:09.087Z,78.60
2019-04-29T19:38:37.559Z,78.60
2019-04-29T19:41:06.450Z,78.00
2019-04-29T19:43:35.949Z,76.30
2019-04-29T19:46:05.818Z,74.50
2019-04-29T19:48:36.749Z,73.40
2019-04-29T19:51:14.701Z,73.20
2019-04-29T19:53:42.781Z,73.30
2019-04-29T19:56:06.962Z,72.60
2019-04-29T19:58:36.269Z,71.80
2019-04-29T20:01:13.948Z,70.70
2019-04-29T20:03:41.698Z,69.90
2019-04-29T20:06:24.710Z,69.20
2019-04-29T20:08:53.859Z,68.20
2019-04-29T20:11:18.473Z,67.00
2019-04-29T20:14:01.022Z,66.50
2019-04-29T20:16:43.453Z,66.10
2019-04-29T20:19:12.325Z,65.80
2019-04-29T20:21:48.856Z,64.60
2019-04-29T20:24:22.916Z,62.60
2019-04-29T20:26:48.608Z,60.20
2019-04-29T20:29:17.454Z,57.90
2019-04-29T20:31:51.986Z,56.70
2019-04-29T20:34:23.764Z,54.80
2019-04-29T20:36:47.663Z,54.00
2019-04-29T20:39:23.067Z,53.20
2019-04-29T20:41:48.998Z,52.70
2019-04-29T20:44:18.020Z,52.00
2019-04-29T20:47:13.014Z,51.30
2019-04-29T20:49:17.891Z,51.20
2019-04-29T20:51:52.206Z,50.30
2019-04-29T20:54:25.272Z,49.90
2019-04-29T20:57:02.794Z,50.10
2019-04-29T20:59:25.915Z,49.10
2019-04-29T21:02:11.307Z,48.80
2019-04-29T21:04:34.081Z,48.60
2019-04-29T21:07:02.738Z,48.30
2019-04-29T21:09:31.512Z,48.10
2019-04-29T21:12:20.589Z,47.90
2019-04-29T21:14:59.332Z,48.30
2019-04-29T21:17:31.499Z,48.20
2019-04-29T21:19:58.348Z,48.00
2019-04-29T21:22:27.136Z,48.30
2019-04-29T21:24:57.678Z,48.20
2019-04-29T21:27:27.676Z,48.20
2019-04-29T21:29:56.619Z,48.30
2019-04-29T21:32:25.924Z,48.70
2019-04-29T21:34:56.566Z,48.10
2019-04-29T21:37:39.919Z,48.30
2019-04-29T21:40:18.579Z,48.20
2019-04-29T21:42:47.346Z,48.70
2019-04-29T21:45:17.506Z,48.40
2019-04-29T21:47:52.928Z,47.90
2019-04-29T21:50:17.189Z,48.20
2019-04-29T21:52:46.889Z,47.80
2019-04-29T21:55:16.232Z,47.80
2019-04-29T21:57:45.285Z,47.70
2019-04-29T22:00:23.866Z,47.30
2019-04-29T22:02:48.983Z,47.60
2019-04-29T22:05:18.452Z,47.90
2019-04-29T22:07:47.564Z,48.00
2019-04-29T22:10:19.826Z,47.80
2019-04-29T22:12:50.971Z,47.50
2019-04-29T22:15:29.746Z,47.40
2019-04-29T22:17:56.238Z,47.70
2019-04-29T22:20:21.493Z,47.60
2019-04-29T22:22:50.324Z,47.30
2019-04-29T22:25:19.184Z,47.10
2019-04-29T22:27:48.179Z,47.30
2019-04-29T22:30:18.788Z,47.20
2019-04-29T22:32:51.719Z,46.90
2019-04-29T22:35:19.152Z,47.10
2019-04-29T22:37:48.158Z,47.00
2019-04-29T22:40:17.428Z,47.00
2019-04-29T22:42:50.512Z,47.20
2019-04-29T22:45:19.557Z,47.30
2019-04-29T22:47:48.416Z,47.30
2019-04-29T22:50:17.209Z,47.00
2019-04-29T22:52:45.977Z,47.00
2019-04-29T22:55:15.557Z,46.80
2019-04-29T22:57:44.877Z,46.70
2019-04-29T23:00:17.009Z,47.00
2019-04-29T23:02:45.816Z,46.60
2019-04-29T23:05:14.584Z,46.60
2019-04-29T23:07:45.483Z,46.80
2019-04-29T23:10:18.050Z,46.80
2019-04-29T23:12:45.092Z,47.00
2019-04-29T23:15:22.749Z,47.00
2019-04-29T23:17:47.371Z,47.90
2019-04-29T23:20:20.703Z,47.90
2019-04-29T23:22:52.664Z,48.40
2019-04-29T23:25:26.609Z,48.50
2019-04-29T23:27:53.913Z,48.40
2019-04-29T23:30:24.647Z,48.60
2019-04-29T23:32:53.639Z,48.70
2019-04-29T23:35:22.400Z,48.90
2019-04-29T23:37:52.549Z,48.90
2019-04-29T23:40:21.541Z,48.80
2019-04-29T23:42:50.428Z,48.80
2019-04-29T23:45:21.084Z,49.70
2019-04-29T23:47:50.452Z,50.10
2019-04-29T23:50:20.226Z,50.60
2019-04-29T23:52:51.823Z,51.00
2019-04-29T23:55:20.490Z,51.90
